Lochalsh, Canada
Current Conditions -  °F | °C
As of 7:00 PM on Wednesday 26 Nov 2014 (Local Time) from CYXZ Reporting Station
Light Snow Light Snow  
Wind Chill:   Ceiling: 500
Heat Index: 18°   Visibility: 0.75mi
Dew Point: 14°   Wind: 6mph
Humidity: 86%   Direction: 20°NNE
Pressure: 30.15"   Gusts: NA
Location:  48.35°N, 84.27°W
Report Text: CYXZ 270000Z 02005KT 3/4SM -SN VV005 M08/M10 A3015 RMK SN8 LAST OBS/271100UTC /S08/ SLP232
Loading
Personal Weather Stations






























Interactive Weather Map New forecast layout! Learn more

10-Day Weather Forecast

Advertisements
Track Severe Weather on mobile